Athens, Michigan
Current Conditions -  °F | °C
As of 5:54 AM on Sunday 23 Nov 2014 (Local Time) from KOEB Reporting Station
Drizzle Drizzle  
Wind Chill: 45°   Ceiling: 1800
Heat Index: 48°   Visibility: 7mi
Dew Point: 45°   Wind: 7mph
Humidity: 89%   Direction: 190°S
Pressure: 29.9"   Gusts: NA
Location:  42.09°N, 85.23°W
Report Text: KOEB 231054Z AUTO 19006KT 7SM -DZ BKN018 OVC027 09/07 A2990 RMK AO2 T00890072
Loading
Personal Weather Stations






























Interactive Weather Map New forecast layout! Learn more

10-Day Weather Forecast

Advertisements
Track Severe Weather on mobile